LOWLLOWI

Guest
Details From LOWL - Linz Hoersching
To LOWI - Innsbruck Kranebitten
Flight Number -
Tags Generated
Created
Modified
Stats Distance 129 nm / 238 km
Max Altitude 0 ft / 0 m
Waypoints 2
Social Downloads 3
Likes 0
Share VATSIM

Download

Looking for another format? Having issues loading an existing format? Contact us
Advertisement - Login to hide

Notes

Generated

Route

LOWL LOWI

ID Type Via Altitude Latitude Longitude Leg Dist Tot Dist Heading (true) Name
O LOWL APT - 0 ft / 0 m 48.23240˚ 14.16739˚ - 0 nm - -
O LOWI APT - 0 ft / 0 m 47.25883˚ 11.33091˚ 128 nm 128 nm 244° / 242° -

Altitude Profile

Advertisement - Login to hide

LOWL

Details ICAO LOWL (LNZ)
Name Linz Hoersching
Region Austria
Timezone Europe/Vienna (UTC+1.0)
Stats Elevation 978 ft / 298 m (AMSL)
Location 48.233219° 14.187513°
Runways 1
Magnetic Variation 3.726° E

METAR

LOWL 132220Z AUTO VRB01KT 9999 FEW080 BKN090 M01/M03 Q1004

Decode

TAF

TAF LOWL 131715Z 1318/1418 09004KT CAVOK TX06/1413Z TNM02/1323Z BECMG 1319/1322 26005KT 8000 SCT060 BKN090 TEMPO 1402/1409 VRB02KT -RA BKN050 PROB40 TEMPO 1402/1407 4500 -FZRA TEMPO 1408/1414 28020G30KT -SHRA BKN050

Decode

Departure Runways

ID Width Length Bearing (true) Bearing (mag) Surface Threshold Offset Overrun Length
09 197 ft / 60 m 9,802 ft / 2,988 m 86.49° 82.76° Asphalt 820 ft / 250 m 0 ft / 0 m
27 197 ft / 60 m 9,802 ft / 2,988 m 266.52° 262.79° Asphalt 492 ft / 150 m 0 ft / 0 m

LOWI

Details ICAO LOWI (INN)
Name Innsbruck Kranebitten
Region Austria
Timezone Europe/Vienna (UTC+1.0)
Stats Elevation 1,906 ft / 581 m (AMSL)
Location 47.260226° 11.343967°
Runways 1
Magnetic Variation 3.019° E

METAR

LOWI 132220Z AUTO 27012KT 200V300 9999 FEW100 SCT110 BKN120 M02/M04 Q1006

Decode

TAF

TAF LOWI 131715Z 1318/1418 27010KT 9999 FEW030 BKN100 TX04/1412Z TNM02/1319Z TEMPO 1324/1418 27015G25KT -SHSN FEW015 BKN060

Decode

Destination Runways

ID Width Length Bearing (true) Bearing (mag) Surface Threshold Offset Overrun Length
08 148 ft / 45 m 6,545 ft / 1,995 m 81.02° 78.00° Asphalt 338 ft / 103 m 0 ft / 0 m
26 148 ft / 45 m 6,545 ft / 1,995 m 261.04° 258.02° Asphalt 0 ft / 0 m 0 ft / 0 m

Approach Navaids

Runway Type Ident Frequency Range Bearing (true) Bearing (mag) Slope Elevation
26 Localiser OEV 111.10 MHz 27 nm / 50 km 256.00° 252.98° - 1,906 ft / 581 m (AMSL)
26 Localiser OEJ 109.70 MHz 30 nm / 56 km 69.00° 65.98° - 1,906 ft / 581 m (AMSL)
26 Glidescope OEV 111.10 MHz 18 nm / 33 km 256.00° 252.98° 3.80° 1,911 ft / 582 m (AMSL)
26 DME OEJ 109.70 MHz 30 nm / 56 km - - - 1,906 ft / 581 m (AMSL)
26 DME OEV 111.10 MHz 27 nm / 50 km - - - 1,911 ft / 582 m (AMSL)

Popular Alternatives